Time;durP1;ratioP1;P1;durP2;ratioP2;P2;SDS_P1;SDS_P2;PMS_P1;PMS_P2;Temp;Humidity;BMP_temperature;BMP_pressure;BME280_temperature;BME280_humidity;BME280_pressure;Samples;Min_cycle;Max_cycle;Signal;HPM_P1;HPM_P2
2021/08/28 00:00:25;;;;;;;2.80;2.50;;;16.00;99.90;;;;;;5029441;28;20182;-52
2021/08/28 00:02:50;;;;;;;3.63;2.40;;;15.90;99.90;;;;;;5025088;28;20261;-51
2021/08/28 00:05:16;;;;;;;2.90;2.50;;;15.80;99.90;;;;;;5026987;28;20201;-52
2021/08/28 00:07:42;;;;;;;2.63;2.43;;;15.70;99.90;;;;;;5031130;28;20213;-51
2021/08/28 00:10:08;;;;;;;3.00;2.53;;;15.90;99.90;;;;;;5032189;28;20182;-53
2021/08/28 00:12:34;;;;;;;3.60;2.80;;;15.90;99.90;;;;;;5029993;28;20222;-52
2021/08/28 00:15:00;;;;;;;2.90;2.60;;;15.90;99.90;;;;;;5030492;28;20237;-53
2021/08/28 00:17:32;;;;;;;2.50;2.30;;;15.70;99.90;;;;;;5017097;28;20537;-52
2021/08/28 00:20:06;;;;;;;2.67;2.42;;;15.70;99.90;;;;;;5027227;28;20519;-53
2021/08/28 00:22:32;;;;;;;2.80;2.50;;;15.80;99.90;;;;;;5029777;28;20193;-52
2021/08/28 00:24:57;;;;;;;3.00;2.80;;;15.80;99.90;;;;;;5032030;28;20198;-53
2021/08/28 00:27:23;;;;;;;4.93;3.00;;;15.60;99.90;;;;;;5026548;28;20208;-51
2021/08/28 00:29:49;;;;;;;4.50;2.67;;;15.80;99.90;;;;;;5031724;28;20195;-52
2021/08/28 00:32:15;;;;;;;2.95;2.67;;;16.10;99.90;;;;;;5031214;28;20178;-52
2021/08/28 00:34:41;;;;;;;2.90;2.70;;;15.90;99.90;;;;;;5030547;28;20292;-52
2021/08/28 00:37:07;;;;;;;3.03;2.22;;;15.90;99.90;;;;;;5030263;28;20304;-51
2021/08/28 00:39:32;;;;;;;2.80;2.50;;;16.10;99.90;;;;;;5029646;28;20706;-52
2021/08/28 00:41:59;;;;;;;2.73;2.53;;;15.90;99.90;;;;;;5030503;28;20182;-53
2021/08/28 00:44:26;;;;;;;4.07;2.50;;;15.70;99.90;;;;;;5031887;28;20544;-52
2021/08/28 00:46:53;;;;;;;2.85;2.50;;;15.70;99.90;;;;;;5025118;28;20246;-52
2021/08/28 00:49:19;;;;;;;3.10;2.75;;;15.60;99.90;;;;;;5030788;28;20544;-52
2021/08/28 00:51:45;;;;;;;3.20;2.90;;;15.90;99.90;;;;;;5030634;28;20186;-51
2021/08/28 00:54:11;;;;;;;3.03;2.20;;;15.50;99.90;;;;;;5031832;28;20186;-53
2021/08/28 00:56:38;;;;;;;2.85;2.65;;;15.60;99.90;;;;;;5028318;28;20198;-53
2021/08/28 00:59:04;;;;;;;2.88;2.67;;;15.60;99.90;;;;;;5030791;28;20210;-52
2021/08/28 01:01:35;;;;;;;2.80;2.60;;;15.80;99.90;;;;;;5021549;28;20186;-52
2021/08/28 01:04:01;;;;;;;3.70;3.08;;;15.90;99.90;;;;;;5011869;28;20175;-51
2021/08/28 01:06:39;;;;;;;4.33;2.60;;;15.70;99.90;;;;;;5020350;28;20209;-53
2021/08/28 01:09:13;;;;;;;4.28;2.45;;;15.70;99.90;;;;;;5026281;28;20743;-53
2021/08/28 01:12:19;;;;;;;3.00;2.05;;;15.60;99.90;;;;;;5021568;28;20183;-51
2021/08/28 01:14:51;;;;;;;4.97;2.70;;;15.80;99.90;;;;;;5024526;28;20275;-52
2021/08/28 01:17:18;;;;;;;4.20;2.60;;;15.80;99.90;;;;;;5025922;28;20622;-51
2021/08/28 01:19:56;;;;;;;2.72;2.38;;;15.90;99.90;;;;;;5026415;28;20277;-50
2021/08/28 01:22:23;;;;;;;2.72;2.53;;;15.80;99.90;;;;;;5011728;28;20187;-52
2021/08/28 01:24:49;;;;;;;2.90;2.70;;;15.50;99.90;;;;;;5031035;28;20739;-51
2021/08/28 01:27:18;;;;;;;3.43;2.60;;;16.00;99.90;;;;;;5025883;28;20310;-51
2021/08/28 01:29:44;;;;;;;3.97;2.92;;;16.00;99.90;;;;;;5030127;28;20455;-51
2021/08/28 01:32:13;;;;;;;5.60;5.10;;;15.80;99.90;;;;;;5030928;28;20632;-51
2021/08/28 01:34:39;;;;;;;2.97;2.75;;;15.80;99.90;;;;;;5028901;28;20504;-50
2021/08/28 01:37:08;;;;;;;2.58;2.42;;;16.00;99.90;;;;;;5030067;28;20228;-52
2021/08/28 01:39:35;;;;;;;2.55;2.35;;;15.40;99.90;;;;;;5028013;28;20186;-51
2021/08/28 01:42:03;;;;;;;2.88;2.63;;;16.10;99.90;;;;;;5026556;28;20182;-51
2021/08/28 01:44:31;;;;;;;2.47;2.28;;;15.80;99.90;;;;;;5015633;28;20278;-52
2021/08/28 01:46:57;;;;;;;3.15;2.30;;;15.80;99.90;;;;;;5027620;28;20206;-53
2021/08/28 01:49:24;;;;;;;4.17;2.80;;;15.70;99.90;;;;;;5028846;28;20620;-53
2021/08/28 01:51:50;;;;;;;2.90;2.70;;;16.00;99.90;;;;;;5029354;28;20727;-51
2021/08/28 01:54:17;;;;;;;4.35;2.53;;;15.80;99.90;;;;;;5024071;28;20201;-52
2021/08/28 01:56:43;;;;;;;6.18;3.00;;;15.70;99.90;;;;;;5019062;28;20198;-51
2021/08/28 01:59:08;;;;;;;3.73;2.63;;;16.10;99.90;;;;;;5027785;28;20190;-52
2021/08/28 02:01:34;;;;;;;3.93;2.73;;;15.80;99.90;;;;;;5029630;28;20842;-52
2021/08/28 02:04:00;;;;;;;2.77;2.57;;;15.80;99.90;;;;;;5028947;28;20609;-51
2021/08/28 02:06:37;;;;;;;3.60;2.92;;;15.40;99.90;;;;;;5023630;28;20217;-51
2021/08/28 02:09:24;;;;;;;3.55;3.25;;;15.90;99.90;;;;;;5025763;28;20598;-51
2021/08/28 02:12:19;;;;;;;2.80;2.60;;;15.90;99.90;;;;;;5023888;28;20551;-51
2021/08/28 02:15:01;;;;;;;3.03;2.80;;;15.80;99.90;;;;;;5027407;28;20319;-51
2021/08/28 02:17:29;;;;;;;5.32;3.58;;;16.00;99.90;;;;;;5024921;28;20228;-52
2021/08/28 02:20:01;;;;;;;3.78;3.47;;;15.80;99.90;;;;;;5025257;28;20197;-50
2021/08/28 02:22:31;;;;;;;3.67;3.38;;;15.70;99.90;;;;;;5024842;28;20182;-52
2021/08/28 02:25:04;;;;;;;9.38;3.50;;;15.70;99.90;;;;;;5020635;28;20184;-52
2021/08/28 02:27:42;;;;;;;4.50;3.90;;;15.90;99.90;;;;;;5019952;28;20205;-51
2021/08/28 02:30:10;;;;;;;4.45;3.83;;;16.10;99.90;;;;;;5026386;28;20191;-51
2021/08/28 02:32:37;;;;;;;3.90;3.60;;;15.90;99.90;;;;;;5019582;28;20560;-52
2021/08/28 02:35:04;;;;;;;7.20;5.35;;;15.70;99.90;;;;;;5026097;28;20211;-53
2021/08/28 02:37:35;;;;;;;5.55;4.90;;;15.90;99.90;;;;;;5017626;28;20238;-53
2021/08/28 02:40:06;;;;;;;4.75;4.35;;;15.90;99.90;;;;;;5022500;28;20179;-53
2021/08/28 02:42:33;;;;;;;4.45;4.05;;;15.70;99.90;;;;;;5028350;28;20189;-53
2021/08/28 02:45:01;;;;;;;4.72;4.32;;;15.70;99.90;;;;;;5029946;28;20548;-52
2021/08/28 02:47:29;;;;;;;6.47;5.88;;;15.20;99.90;;;;;;5029019;28;20210;-52
2021/08/28 02:49:57;;;;;;;7.18;5.85;;;15.70;99.90;;;;;;5025858;28;20213;-52
2021/08/28 02:52:26;;;;;;;7.47;6.63;;;16.00;99.90;;;;;;5028600;28;20273;-51
2021/08/28 02:54:56;;;;;;;5.70;5.20;;;15.80;99.90;;;;;;5024873;28;20220;-52
2021/08/28 02:57:24;;;;;;;5.78;5.28;;;15.80;99.90;;;;;;5026473;28;20261;-52
2021/08/28 02:59:50;;;;;;;6.90;5.30;;;15.70;99.90;;;;;;5025355;28;20209;-52
2021/08/28 03:02:17;;;;;;;5.00;4.60;;;15.50;99.90;;;;;;5022265;28;20549;-51
2021/08/28 03:04:44;;;;;;;7.63;6.82;;;15.90;99.90;;;;;;5023868;28;20269;-51
2021/08/28 03:07:11;;;;;;;7.00;6.40;;;15.60;99.90;;;;;;5024401;28;20222;-52
2021/08/28 03:09:38;;;;;;;7.55;6.85;;;15.50;99.90;;;;;;5018700;28;20201;-51
2021/08/28 03:12:05;;;;;;;6.97;6.30;;;15.60;99.90;;;;;;5023098;28;20189;-52
2021/08/28 03:14:31;;;;;;;7.60;6.40;;;15.50;99.90;;;;;;5031113;28;20222;-51
2021/08/28 03:16:57;;;;;;;8.00;7.20;;;15.50;99.90;;;;;;5029518;28;20214;-52
2021/08/28 03:19:27;;;;;;;8.32;7.53;;;15.50;99.90;;;;;;5020644;28;20267;-53
2021/08/28 03:21:54;;;;;;;10.23;8.23;;;15.50;99.90;;;;;;5028968;28;20266;-52
2021/08/28 03:24:23;;;;;;;9.05;8.15;;;15.90;99.90;;;;;;5033286;28;20273;-52
2021/08/28 03:26:51;;;;;;;9.27;8.38;;;15.70;99.90;;;;;;5027526;28;20206;-51
2021/08/28 03:29:20;;;;;;;10.02;8.52;;;15.70;99.90;;;;;;5028269;28;20186;-51
2021/08/28 03:31:46;;;;;;;8.32;7.53;;;15.80;99.90;;;;;;5019074;28;20205;-51
2021/08/28 03:34:12;;;;;;;8.90;8.00;;;15.60;99.90;;;;;;5013835;28;20675;-51
2021/08/28 03:36:38;;;;;;;10.32;9.27;;;15.70;99.90;;;;;;5018574;28;20574;-51
2021/08/28 03:39:06;;;;;;;11.65;8.60;;;15.60;99.90;;;;;;5026224;28;20595;-50
2021/08/28 03:41:32;;;;;;;11.18;9.40;;;15.50;99.90;;;;;;5025221;28;20174;-51
2021/08/28 03:43:57;;;;;;;10.95;9.85;;;15.50;99.90;;;;;;5028671;28;20188;-51
2021/08/28 03:46:24;;;;;;;9.83;8.83;;;15.30;99.90;;;;;;5022496;28;20582;-50
2021/08/28 03:48:50;;;;;;;10.73;9.63;;;15.20;99.90;;;;;;5029276;28;20402;-51
2021/08/28 03:51:15;;;;;;;11.15;9.80;;;15.40;99.90;;;;;;5028573;28;20214;-51
2021/08/28 03:53:41;;;;;;;10.73;9.57;;;15.50;99.90;;;;;;5032401;28;20221;-50
2021/08/28 03:56:07;;;;;;;11.93;10.70;;;15.50;99.90;;;;;;5021798;28;20309;-51
2021/08/28 03:58:34;;;;;;;13.03;10.30;;;15.60;99.90;;;;;;5031128;28;20618;-50
2021/08/28 04:01:00;;;;;;;11.45;10.20;;;15.20;99.90;;;;;;5022134;28;20175;-51
2021/08/28 04:03:25;;;;;;;11.30;10.20;;;15.60;99.90;;;;;;5026615;28;20269;-51
2021/08/28 04:05:51;;;;;;;11.27;9.63;;;15.60;99.90;;;;;;5031434;28;20217;-51
2021/08/28 04:08:17;;;;;;;11.23;10.13;;;15.70;99.90;;;;;;5026342;28;20297;-51
2021/08/28 04:10:42;;;;;;;13.80;12.43;;;15.60;99.90;;;;;;5025850;28;20190;-51
2021/08/28 04:13:08;;;;;;;11.37;10.27;;;15.10;99.90;;;;;;5022183;28;20194;-51
2021/08/28 04:15:34;;;;;;;12.20;9.77;;;15.60;99.90;;;;;;5031823;28;20202;-51
2021/08/28 04:18:00;;;;;;;13.95;11.65;;;15.70;99.90;;;;;;5030776;28;20206;-51
2021/08/28 04:20:26;;;;;;;12.40;11.10;;;15.50;99.90;;;;;;5029248;28;20189;-50
2021/08/28 04:22:52;;;;;;;13.10;11.70;;;15.50;99.90;;;;;;5027926;28;20941;-50
2021/08/28 04:25:17;;;;;;;14.70;11.87;;;15.40;99.90;;;;;;5027070;28;20270;-51
2021/08/28 04:27:43;;;;;;;13.10;11.50;;;15.50;99.90;;;;;;5027920;28;20687;-50
2021/08/28 04:30:10;;;;;;;13.90;11.83;;;15.60;99.90;;;;;;5025537;28;20186;-51
2021/08/28 04:32:35;;;;;;;13.43;11.90;;;15.30;99.90;;;;;;5028173;28;20213;-51
2021/08/28 04:35:02;;;;;;;13.50;11.20;;;15.50;99.90;;;;;;5023819;28;20219;-50
2021/08/28 04:37:27;;;;;;;14.05;12.65;;;15.40;99.90;;;;;;5025902;28;20198;-51
2021/08/28 04:39:53;;;;;;;13.47;12.07;;;15.40;99.90;;;;;;5031316;28;20268;-51
2021/08/28 04:42:19;;;;;;;13.27;11.93;;;15.20;99.90;;;;;;5021212;28;20186;-50
2021/08/28 04:44:45;;;;;;;15.43;12.98;;;15.30;99.90;;;;;;5026118;28;20649;-50
2021/08/28 04:47:11;;;;;;;13.67;12.27;;;15.60;99.90;;;;;;5026867;28;20218;-50
2021/08/28 04:49:37;;;;;;;14.00;11.10;;;15.50;99.90;;;;;;5028816;28;20445;-50
2021/08/28 04:52:04;;;;;;;13.30;11.53;;;15.50;99.90;;;;;;5027291;28;20194;-50
2021/08/28 04:54:31;;;;;;;12.55;11.25;;;15.60;99.90;;;;;;5026228;28;20567;-49
2021/08/28 04:56:57;;;;;;;14.35;11.70;;;15.30;99.90;;;;;;5022798;28;20202;-50
2021/08/28 04:59:23;;;;;;;12.20;10.67;;;15.50;99.90;;;;;;5027506;28;20829;-51
2021/08/28 05:01:48;;;;;;;11.70;10.60;;;15.30;99.90;;;;;;5020622;28;20847;-50
2021/08/28 05:04:14;;;;;;;13.20;11.80;;;15.40;99.90;;;;;;5019243;28;20240;-50
2021/08/28 05:06:40;;;;;;;11.90;10.70;;;15.40;99.90;;;;;;5024151;28;20202;-49
2021/08/28 05:09:05;;;;;;;13.87;12.00;;;15.50;99.90;;;;;;5024240;28;20572;-50
2021/08/28 05:11:31;;;;;;;13.37;12.00;;;15.40;99.90;;;;;;5026935;28;20182;-49
2021/08/28 05:13:57;;;;;;;13.67;12.27;;;15.50;99.90;;;;;;5029435;28;20222;-49
2021/08/28 05:16:22;;;;;;;15.70;13.00;;;15.60;99.90;;;;;;5028933;28;20224;-50
2021/08/28 05:18:48;;;;;;;14.20;12.70;;;15.50;99.90;;;;;;5023718;28;20179;-51
2021/08/28 05:21:14;;;;;;;12.50;11.27;;;15.60;99.90;;;;;;5024715;28;20190;-48
2021/08/28 05:23:41;;;;;;;13.57;12.17;;;15.50;99.90;;;;;;5023193;28;20177;-50
2021/08/28 05:26:06;;;;;;;13.50;12.10;;;15.50;99.90;;;;;;5013959;28;20187;-50
2021/08/28 05:28:32;;;;;;;14.80;12.00;;;15.50;99.90;;;;;;5026462;28;20196;-49
2021/08/28 05:30:58;;;;;;;13.43;12.00;;;15.40;99.90;;;;;;5025009;28;20189;-49
2021/08/28 05:33:24;;;;;;;13.00;11.70;;;15.40;99.90;;;;;;5030017;28;20185;-51
2021/08/28 05:35:50;;;;;;;14.33;12.93;;;14.80;99.90;;;;;;5025987;28;20695;-50
2021/08/28 05:38:15;;;;;;;12.13;11.00;;;15.60;99.90;;;;;;5020710;28;20990;-49
2021/08/28 05:40:41;;;;;;;12.00;10.80;;;15.40;99.90;;;;;;5027345;28;20480;-50
2021/08/28 05:43:07;;;;;;;14.53;11.80;;;15.30;99.90;;;;;;5026885;28;20190;-50
2021/08/28 05:45:32;;;;;;;15.13;11.93;;;15.30;99.90;;;;;;5024038;28;20178;-50
2021/08/28 05:47:58;;;;;;;15.07;13.47;;;15.40;99.90;;;;;;5018727;28;20202;-50
2021/08/28 05:50:24;;;;;;;12.53;11.33;;;15.70;99.90;;;;;;5019777;28;20560;-49
2021/08/28 05:52:50;;;;;;;12.70;11.40;;;15.80;99.90;;;;;;5023485;28;20198;-50
2021/08/28 05:55:15;;;;;;;12.43;11.13;;;15.70;99.90;;;;;;5028286;28;21044;-50
2021/08/28 05:57:42;;;;;;;12.20;10.90;;;15.80;99.90;;;;;;5022955;28;20202;-50
2021/08/28 06:00:08;;;;;;;12.50;11.20;;;15.80;99.90;;;;;;5026575;28;20694;-50
2021/08/28 06:02:38;;;;;;;12.82;11.52;;;15.70;99.90;;;;;;5029440;28;20190;-50
2021/08/28 06:05:08;;;;;;;12.23;11.00;;;15.60;99.90;;;;;;5020645;28;20193;-50
2021/08/28 06:07:35;;;;;;;12.50;11.30;;;15.70;99.90;;;;;;5026733;28;20619;-50
2021/08/28 06:10:01;;;;;;;13.10;11.80;;;15.80;99.90;;;;;;5029613;28;20217;-50
2021/08/28 06:12:27;;;;;;;12.05;10.95;;;15.60;99.90;;;;;;5021547;28;20269;-51
2021/08/28 06:14:52;;;;;;;12.10;10.67;;;15.30;99.90;;;;;;5025897;28;20320;-51
2021/08/28 06:17:18;;;;;;;11.10;10.00;;;15.60;99.90;;;;;;5030046;28;20459;-50
2021/08/28 06:19:44;;;;;;;12.27;10.97;;;15.70;99.90;;;;;;5020645;28;20260;-51
2021/08/28 06:22:09;;;;;;;12.13;10.93;;;15.50;99.90;;;;;;5018108;28;20209;-50
2021/08/28 06:24:35;;;;;;;16.80;11.10;;;15.70;99.90;;;;;;5029816;28;20196;-50
2021/08/28 06:27:02;;;;;;;12.03;10.93;;;15.50;99.90;;;;;;5018257;28;20253;-50
2021/08/28 06:29:27;;;;;;;15.05;10.65;;;15.40;99.90;;;;;;5027069;28;20190;-50
2021/08/28 06:31:53;;;;;;;12.60;9.87;;;15.40;99.90;;;;;;5025213;28;20613;-50
2021/08/28 06:34:19;;;;;;;12.30;10.63;;;15.60;99.90;;;;;;5027124;28;20222;-49
2021/08/28 06:36:44;;;;;;;11.90;10.70;;;15.40;99.90;;;;;;5023486;28;20249;-50
2021/08/28 06:39:10;;;;;;;10.50;9.33;;;15.50;99.90;;;;;;5026433;28;20243;-50
2021/08/28 06:41:36;;;;;;;13.07;11.67;;;15.10;99.90;;;;;;5026006;28;20201;-49
2021/08/28 06:44:01;;;;;;;11.13;10.13;;;15.40;99.90;;;;;;5026272;28;20217;-50
2021/08/28 06:46:27;;;;;;;9.97;9.00;;;15.40;99.90;;;;;;5023874;28;20596;-49
2021/08/28 06:48:53;;;;;;;12.43;11.00;;;15.60;99.90;;;;;;5021895;28;20183;-50
2021/08/28 06:51:19;;;;;;;11.83;10.60;;;15.40;99.90;;;;;;5025544;28;20433;-50
2021/08/28 06:53:44;;;;;;;10.03;8.73;;;15.60;99.90;;;;;;5027161;28;20183;-50
2021/08/28 06:56:10;;;;;;;11.93;10.43;;;15.80;99.90;;;;;;5022013;28;20981;-50
2021/08/28 06:58:36;;;;;;;12.27;10.23;;;15.80;99.90;;;;;;5024895;28;20198;-50
2021/08/28 07:01:02;;;;;;;11.93;10.67;;;16.00;99.90;;;;;;5030394;28;20174;-49
2021/08/28 07:03:28;;;;;;;12.10;9.70;;;15.90;99.90;;;;;;5025686;28;20178;-50
2021/08/28 07:05:54;;;;;;;11.07;9.90;;;16.00;99.90;;;;;;5021973;28;20213;-49
2021/08/28 07:08:20;;;;;;;10.77;9.70;;;15.80;99.90;;;;;;5023423;28;20194;-50
2021/08/28 07:10:46;;;;;;;10.80;9.70;;;15.80;99.90;;;;;;5029875;28;20344;-51
2021/08/28 07:13:12;;;;;;;11.55;10.35;;;15.70;99.90;;;;;;5029582;28;20211;-50
2021/08/28 07:15:38;;;;;;;11.88;9.60;;;16.00;99.90;;;;;;5030319;28;20224;-51
2021/08/28 07:18:06;;;;;;;10.47;9.33;;;16.60;99.90;;;;;;5029406;28;20206;-50
2021/08/28 07:20:32;;;;;;;8.75;7.85;;;16.90;99.90;;;;;;5021253;28;20837;-50
2021/08/28 07:22:57;;;;;;;8.60;7.80;;;17.10;99.90;;;;;;5033104;28;20236;-49
2021/08/28 07:25:23;;;;;;;10.50;8.20;;;17.30;99.90;;;;;;5032386;28;20226;-51
2021/08/28 07:27:49;;;;;;;7.97;6.70;;;17.30;99.90;;;;;;5025302;28;20293;-51
2021/08/28 07:30:14;;;;;;;6.87;6.27;;;17.30;99.90;;;;;;5031326;28;20182;-50
2021/08/28 07:32:40;;;;;;;6.67;6.13;;;17.00;99.90;;;;;;5029087;28;20186;-50
2021/08/28 07:35:07;;;;;;;6.33;5.73;;;17.00;99.90;;;;;;5031310;28;20202;-50
2021/08/28 07:37:32;;;;;;;5.22;4.72;;;16.60;99.90;;;;;;5027561;28;20214;-51
2021/08/28 07:39:58;;;;;;;7.53;5.90;;;17.00;99.90;;;;;;5031393;28;20261;-51
2021/08/28 07:42:24;;;;;;;7.20;6.60;;;17.00;99.90;;;;;;5020459;28;20519;-51
2021/08/28 07:44:49;;;;;;;6.23;5.73;;;17.40;99.90;;;;;;5021989;28;20621;-50
2021/08/28 07:47:15;;;;;;;6.03;5.53;;;18.10;99.90;;;;;;5032509;28;20213;-51
2021/08/28 07:49:41;;;;;;;5.30;4.80;;;18.20;99.90;;;;;;5022484;28;20217;-51
2021/08/28 07:52:07;;;;;;;4.63;4.20;;;18.40;99.90;;;;;;5020925;28;20255;-51
2021/08/28 07:54:32;;;;;;;4.90;4.50;;;18.30;99.90;;;;;;5025828;28;20190;-51
2021/08/28 07:56:59;;;;;;;5.40;4.93;;;18.40;99.90;;;;;;5028015;28;20217;-53
2021/08/28 07:59:26;;;;;;;4.70;4.30;;;18.40;99.90;;;;;;5019984;28;20190;-51
2021/08/28 08:01:53;;;;;;;4.43;4.10;;;18.10;99.90;;;;;;5027632;28;20241;-53
2021/08/28 08:04:19;;;;;;;4.57;3.85;;;18.20;99.90;;;;;;5022165;28;20265;-52
2021/08/28 08:06:44;;;;;;;5.37;4.47;;;19.10;99.90;;;;;;5025674;28;20298;-51
2021/08/28 08:09:10;;;;;;;3.90;3.60;;;20.20;98.20;;;;;;5029486;28;20529;-52
2021/08/28 08:11:36;;;;;;;4.47;4.07;;;20.50;96.60;;;;;;5012984;28;20179;-50
2021/08/28 08:14:01;;;;;;;3.83;3.53;;;20.50;96.40;;;;;;5028154;28;20269;-51
2021/08/28 08:16:27;;;;;;;4.83;3.90;;;20.80;95.70;;;;;;5017582;28;20210;-51
2021/08/28 08:18:53;;;;;;;4.00;3.70;;;21.10;95.20;;;;;;5021211;28;20549;-51
2021/08/28 08:21:19;;;;;;;3.83;3.43;;;21.30;95.00;;;;;;5025102;28;20189;-51
2021/08/28 08:23:45;;;;;;;5.13;4.15;;;20.90;94.00;;;;;;5026237;28;20190;-49
2021/08/28 08:26:10;;;;;;;3.47;3.27;;;20.10;95.30;;;;;;5028790;28;20206;-50
2021/08/28 08:28:37;;;;;;;4.90;4.50;;;20.00;95.40;;;;;;5026833;28;20579;-50
2021/08/28 08:31:02;;;;;;;3.30;3.00;;;19.70;95.80;;;;;;5025158;28;20213;-49
2021/08/28 08:33:29;;;;;;;3.50;3.30;;;19.00;96.40;;;;;;5020354;28;20212;-50
2021/08/28 08:35:54;;;;;;;3.67;3.38;;;18.90;97.30;;;;;;5025722;28;20460;-50
2021/08/28 08:38:20;;;;;;;3.47;3.27;;;19.00;97.60;;;;;;5020036;28;20190;-50
2021/08/28 08:40:48;;;;;;;4.73;4.33;;;19.00;97.70;;;;;;5017739;28;20209;-49
2021/08/28 08:43:15;;;;;;;4.28;3.88;;;18.60;97.90;;;;;;5030594;28;20194;-50
2021/08/28 08:45:44;;;;;;;3.70;3.25;;;18.40;99.00;;;;;;5028643;28;20244;-51
2021/08/28 08:48:10;;;;;;;3.28;3.08;;;18.30;98.40;;;;;;5031025;28;20213;-49
2021/08/28 08:50:35;;;;;;;3.13;2.93;;;18.40;98.50;;;;;;5021354;28;20186;-51
2021/08/28 08:53:03;;;;;;;3.20;3.00;;;18.10;98.40;;;;;;5018292;28;20914;-51
2021/08/28 08:55:30;;;;;;;3.63;2.80;;;18.10;99.10;;;;;;5016467;28;20474;-49
2021/08/28 08:57:57;;;;;;;3.45;3.15;;;17.80;99.10;;;;;;5023289;28;20207;-50
2021/08/28 09:00:22;;;;;;;2.95;2.75;;;17.50;99.10;;;;;;5029021;28;20650;-49
2021/08/28 09:02:48;;;;;;;3.67;2.97;;;17.80;99.60;;;;;;5030235;28;20189;-49
2021/08/28 09:05:14;;;;;;;4.03;3.60;;;17.90;99.90;;;;;;5024746;28;20276;-50
2021/08/28 09:07:40;;;;;;;3.30;2.90;;;18.00;99.90;;;;;;5022332;28;20207;-49
2021/08/28 09:10:06;;;;;;;2.73;2.53;;;18.10;99.90;;;;;;5022438;28;20748;-50
2021/08/28 09:12:39;;;;;;;4.18;3.88;;;17.90;99.90;;;;;;5026827;28;20473;-50
2021/08/28 09:15:16;;;;;;;3.47;3.20;;;18.00;99.70;;;;;;5027328;28;20213;-49
2021/08/28 09:17:44;;;;;;;3.40;3.10;;;18.00;99.80;;;;;;5024730;28;20293;-51
2021/08/28 09:20:24;;;;;;;3.30;3.00;;;17.70;99.90;;;;;;5020727;28;20195;-51
2021/08/28 09:23:03;;;;;;;3.38;3.08;;;17.80;99.90;;;;;;5019512;28;20188;-51
2021/08/28 09:25:29;;;;;;;2.95;2.75;;;17.80;99.90;;;;;;5023733;28;20260;-50
2021/08/28 09:27:55;;;;;;;3.17;2.90;;;17.60;99.90;;;;;;5014787;28;20218;-51
2021/08/28 09:30:38;;;;;;;6.30;5.70;;;17.20;99.90;;;;;;5020314;28;20183;-51
2021/08/28 09:33:09;;;;;;;3.38;3.10;;;17.40;99.90;;;;;;5023147;28;20185;-51
2021/08/28 09:35:51;;;;;;;3.80;3.50;;;17.50;99.90;;;;;;5022114;28;20229;-51
2021/08/28 09:38:22;;;;;;;3.15;2.85;;;17.50;99.90;;;;;;5025263;28;20186;-51
2021/08/28 09:40:55;;;;;;;3.25;3.05;;;17.70;99.90;;;;;;5029505;28;20179;-50
2021/08/28 09:43:22;;;;;;;3.50;3.20;;;17.40;99.90;;;;;;5022212;28;20214;-51
2021/08/28 09:45:51;;;;;;;3.53;3.25;;;17.70;99.90;;;;;;5029746;28;20255;-50
2021/08/28 09:48:19;;;;;;;2.70;2.50;;;17.80;99.90;;;;;;5024399;28;20692;-48
2021/08/28 09:50:48;;;;;;;3.13;2.40;;;17.90;99.90;;;;;;5023693;28;20552;-48
2021/08/28 09:53:21;;;;;;;2.60;2.40;;;18.00;99.90;;;;;;5015129;28;20220;-48
2021/08/28 09:55:57;;;;;;;3.50;3.20;;;17.70;99.90;;;;;;5025527;28;20568;-50
2021/08/28 09:58:25;;;;;;;3.38;3.10;;;17.70;99.90;;;;;;5030300;28;20178;-49
2021/08/28 10:00:51;;;;;;;3.22;2.92;;;17.80;99.90;;;;;;5024989;28;20198;-51
2021/08/28 10:03:21;;;;;;;4.00;3.10;;;17.90;99.90;;;;;;5027616;28;20178;-49
2021/08/28 10:05:47;;;;;;;3.30;3.10;;;17.70;99.90;;;;;;5017967;28;20178;-52
2021/08/28 10:08:16;;;;;;;6.13;5.60;;;17.50;99.90;;;;;;5021811;28;20213;-53
2021/08/28 10:10:43;;;;;;;4.40;4.00;;;17.30;99.90;;;;;;5017493;28;20197;-53
2021/08/28 10:13:08;;;;;;;2.60;2.40;;;17.40;99.90;;;;;;5024910;28;20205;-53
2021/08/28 10:15:36;;;;;;;2.83;2.63;;;17.40;99.90;;;;;;5024059;28;20291;-53
2021/08/28 10:18:06;;;;;;;2.88;2.67;;;17.40;99.90;;;;;;5019059;28;20222;-53
2021/08/28 10:20:32;;;;;;;3.00;2.70;;;17.10;99.90;;;;;;5020988;28;20237;-53
2021/08/28 10:23:04;;;;;;;3.03;2.83;;;17.30;99.90;;;;;;5026037;28;20206;-52
2021/08/28 10:25:32;;;;;;;3.22;2.97;;;17.10;99.90;;;;;;5029660;28;20197;-53
2021/08/28 10:27:58;;;;;;;3.35;3.15;;;17.10;99.90;;;;;;5018779;28;20377;-53
2021/08/28 10:30:25;;;;;;;5.78;5.18;;;17.00;99.90;;;;;;5026618;28;20194;-54
2021/08/28 10:32:52;;;;;;;3.47;3.17;;;17.30;99.90;;;;;;5026749;28;20189;-53
2021/08/28 10:35:20;;;;;;;3.42;3.15;;;17.00;99.90;;;;;;5020907;28;20221;-54
2021/08/28 10:37:46;;;;;;;3.90;3.33;;;17.20;99.90;;;;;;5029702;28;20221;-54
2021/08/28 10:40:16;;;;;;;4.50;2.90;;;17.40;99.90;;;;;;5028884;28;20187;-54
2021/08/28 10:42:42;;;;;;;2.80;2.60;;;17.10;99.90;;;;;;5028230;28;20497;-54
2021/08/28 10:45:10;;;;;;;2.70;2.50;;;16.80;99.90;;;;;;5021728;28;20293;-53
2021/08/28 10:47:35;;;;;;;2.90;2.70;;;16.90;99.90;;;;;;5028033;28;20206;-53
2021/08/28 10:50:05;;;;;;;3.43;2.90;;;17.20;99.90;;;;;;5023690;28;20191;-52
2021/08/28 10:52:34;;;;;;;2.80;2.60;;;17.30;99.90;;;;;;5018169;28;20452;-53
2021/08/28 10:55:11;;;;;;;2.70;2.50;;;16.80;99.90;;;;;;5009598;28;20640;-53
2021/08/28 10:57:39;;;;;;;4.07;3.42;;;17.10;99.90;;;;;;5016891;28;20209;-54
2021/08/28 11:00:09;;;;;;;2.40;2.28;;;17.20;99.90;;;;;;5028730;28;20178;-53
2021/08/28 11:02:48;;;;;;;2.25;2.08;;;17.70;99.90;;;;;;5023375;28;20186;-53
2021/08/28 11:05:24;;;;;;;1.88;1.60;;;18.10;99.90;;;;;;5023863;28;20199;-53
2021/08/28 11:07:51;;;;;;;1.80;1.70;;;18.50;99.90;;;;;;5022058;28;20606;-51
2021/08/28 11:10:22;;;;;;;1.60;1.50;;;18.80;99.90;;;;;;5018523;28;20182;-51
2021/08/28 11:13:15;;;;;;;1.70;1.60;;;19.00;98.90;;;;;;5021236;28;20214;-52
2021/08/28 11:15:42;;;;;;;1.77;1.67;;;19.00;99.50;;;;;;5028384;28;20232;-52
2021/08/28 11:18:31;;;;;;;1.70;1.60;;;19.10;99.40;;;;;;5020198;28;20206;-51
2021/08/28 11:21:06;;;;;;;1.75;1.65;;;19.00;98.90;;;;;;5019599;28;20194;-51
2021/08/28 11:23:41;;;;;;;1.40;1.30;;;19.30;97.70;;;;;;5021930;28;20673;-51
2021/08/28 11:26:07;;;;;;;1.90;1.80;;;19.60;97.50;;;;;;5023575;28;20273;-52
2021/08/28 11:28:41;;;;;;;1.70;1.60;;;19.70;97.50;;;;;;5018915;28;20268;-51
2021/08/28 11:31:08;;;;;;;1.88;1.77;;;19.60;97.90;;;;;;5023767;28;20494;-52
2021/08/28 11:33:37;;;;;;;1.48;1.38;;;19.50;98.00;;;;;;5021285;28;20500;-50
2021/08/28 11:36:06;;;;;;;1.42;1.33;;;19.20;96.80;;;;;;5021204;28;20206;-51
2021/08/28 11:38:38;;;;;;;1.70;1.60;;;19.50;96.90;;;;;;5032165;28;20174;-50
2021/08/28 11:41:12;;;;;;;1.40;1.30;;;19.80;96.30;;;;;;5018157;28;20190;-50
2021/08/28 11:43:42;;;;;;;2.35;1.38;;;19.40;96.50;;;;;;5027922;28;20240;-50
2021/08/28 11:46:12;;;;;;;1.90;1.80;;;19.50;97.00;;;;;;5030977;28;20248;-50
2021/08/28 11:48:43;;;;;;;1.42;1.33;;;19.50;96.50;;;;;;5017830;28;20424;-50
2021/08/28 11:51:17;;;;;;;3.38;1.20;;;20.00;95.50;;;;;;5015872;28;20209;-50
2021/08/28 11:53:45;;;;;;;1.35;1.25;;;20.10;94.70;;;;;;5026561;28;20186;-50
2021/08/28 11:56:19;;;;;;;1.45;1.35;;;20.30;94.90;;;;;;5021140;28;20232;-49
2021/08/28 11:58:58;;;;;;;1.80;1.70;;;20.30;94.40;;;;;;5026890;28;20616;-51
2021/08/28 12:01:35;;;;;;;1.27;1.17;;;19.90;94.30;;;;;;5029237;28;20643;-52
2021/08/28 12:04:13;;;;;;;1.75;1.23;;;20.00;94.50;;;;;;5022201;28;20559;-51
2021/08/28 12:06:41;;;;;;;2.45;1.30;;;19.60;93.60;;;;;;5017712;28;20225;-50
2021/08/28 12:09:09;;;;;;;1.05;0.95;;;19.60;94.20;;;;;;5022983;28;20202;-50
2021/08/28 12:11:36;;;;;;;1.27;1.17;;;19.70;93.90;;;;;;5027392;28;20182;-49
2021/08/28 12:14:07;;;;;;;6.68;6.07;;;19.80;94.30;;;;;;5026033;28;20879;-51
2021/08/28 12:16:35;;;;;;;2.10;1.90;;;19.80;93.70;;;;;;5031054;28;20213;-50
2021/08/28 12:19:09;;;;;;;1.38;1.27;;;19.50;94.50;;;;;;5030264;28;20541;-52
2021/08/28 12:21:47;;;;;;;1.20;1.10;;;19.60;94.00;;;;;;5022957;28;20658;-50
2021/08/28 12:24:23;;;;;;;1.23;1.15;;;19.00;93.60;;;;;;5024571;28;20190;-50
2021/08/28 12:27:01;;;;;;;1.98;1.10;;;19.40;94.10;;;;;;5022286;28;20509;-51
2021/08/28 12:29:41;;;;;;;1.50;1.40;;;19.50;93.50;;;;;;5020979;28;20287;-49
2021/08/28 12:32:16;;;;;;;2.45;2.25;;;19.60;93.60;;;;;;5031617;28;20194;-51
2021/08/28 12:34:56;;;;;;;1.95;1.83;;;19.80;93.40;;;;;;5020280;28;20190;-49
2021/08/28 12:37:24;;;;;;;1.60;1.33;;;19.60;92.80;;;;;;5025471;28;20206;-50
2021/08/28 12:39:52;;;;;;;1.15;1.05;;;19.60;93.50;;;;;;5020386;28;20299;-50
2021/08/28 12:42:19;;;;;;;2.15;1.85;;;20.10;93.90;;;;;;5027742;28;20260;-50
2021/08/28 12:44:54;;;;;;;2.17;1.60;;;20.30;93.70;;;;;;5023776;28;20182;-51